createdAt,value
2023-05-15T03:56:57.700Z,16.50
2023-05-15T03:57:31.537Z,16.60
2023-05-15T03:58:06.110Z,16.60
2023-05-15T03:58:41.104Z,16.60
2023-05-15T03:59:14.412Z,16.60
2023-05-15T03:59:49.535Z,16.60
2023-05-15T04:00:26.306Z,16.60
2023-05-15T04:00:59.847Z,16.60
2023-05-15T04:01:44.062Z,16.70
2023-05-15T04:02:24.908Z,16.70
2023-05-15T04:03:00.667Z,16.70
2023-05-15T04:03:33.671Z,16.70
2023-05-15T04:04:07.007Z,16.70
2023-05-15T04:04:41.514Z,16.70
2023-05-15T04:05:15.894Z,16.80
2023-05-15T04:05:50.352Z,16.80
2023-05-15T04:06:23.615Z,16.80
2023-05-15T04:06:57.814Z,16.80
2023-05-15T04:07:33.462Z,16.80
2023-05-15T04:08:07.272Z,16.80
2023-05-15T04:08:41.684Z,16.80
2023-05-15T04:09:15.690Z,16.80
2023-05-15T04:09:49.493Z,16.80
2023-05-15T04:10:23.992Z,16.80
2023-05-15T04:10:57.488Z,16.80
2023-05-15T04:11:32.196Z,16.90
2023-05-15T04:12:09.229Z,16.90
2023-05-15T04:12:42.468Z,16.90
2023-05-15T04:13:15.862Z,17.00
2023-05-15T04:13:50.852Z,17.00
2023-05-15T04:14:24.880Z,17.00
2023-05-15T04:15:13.369Z,17.10
2023-05-15T04:15:49.429Z,17.10
2023-05-15T04:16:30.383Z,17.20
2023-05-15T04:17:05.027Z,17.30
2023-05-15T04:17:38.920Z,17.40
2023-05-15T04:18:13.067Z,17.40
2023-05-15T04:18:47.855Z,17.40
2023-05-15T04:19:22.546Z,17.50
2023-05-15T04:19:56.606Z,17.50
2023-05-15T04:20:30.647Z,17.60
2023-05-15T04:21:05.209Z,17.60
2023-05-15T04:21:39.028Z,17.60
2023-05-15T05:07:14.058Z,24.60
2023-05-15T05:07:47.933Z,22.30
2023-05-15T05:08:57.109Z,22.10
2023-05-15T05:09:31.542Z,22.00
2023-05-15T05:10:07.447Z,21.90
2023-05-15T05:10:41.512Z,21.80
2023-05-15T05:11:15.880Z,21.70
2023-05-15T05:11:51.891Z,21.60
2023-05-15T05:12:25.992Z,21.40
2023-05-15T05:13:04.169Z,21.30
2023-05-15T05:13:37.345Z,21.20
2023-05-15T05:14:10.697Z,21.10
2023-05-15T05:14:45.543Z,21.10
2023-05-15T05:15:19.872Z,20.90
2023-05-15T05:15:53.785Z,20.90
2023-05-15T05:16:29.167Z,20.80
2023-05-15T05:17:01.967Z,20.70
2023-05-15T05:17:35.721Z,20.60
2023-05-15T05:18:44.214Z,20.50
2023-05-15T05:19:18.186Z,20.40
2023-05-15T05:19:52.596Z,20.30
2023-05-15T05:20:27.098Z,20.30
2023-05-15T05:21:00.687Z,20.20
2023-05-15T05:21:35.656Z,20.20
2023-05-15T05:22:10.193Z,20.20
2023-05-15T05:22:44.600Z,20.20
2023-05-15T05:23:18.433Z,20.20
2023-05-15T05:23:54.489Z,20.10
2023-05-15T05:24:29.116Z,20.10
2023-05-15T05:25:02.319Z,20.00
2023-05-15T05:29:37.977Z,20.00
2023-05-15T05:43:56.678Z,20.10
2023-05-15T05:44:30.643Z,20.40
2023-05-15T05:45:03.761Z,20.40
2023-05-15T05:45:37.686Z,20.40
2023-05-15T05:46:12.371Z,20.40
2023-05-15T05:46:46.701Z,20.40
2023-05-15T05:47:21.781Z,20.40
2023-05-15T05:47:59.267Z,20.40
2023-05-15T05:48:33.239Z,20.40
2023-05-15T05:49:07.637Z,20.40
2023-05-15T05:49:41.401Z,20.40
2023-05-15T05:50:14.787Z,20.40
2023-05-15T05:50:49.321Z,20.40
2023-05-15T05:51:23.409Z,20.40
2023-05-15T05:51:57.279Z,20.30
2023-05-15T05:52:32.279Z,20.30
2023-05-15T05:53:05.553Z,20.30
2023-05-15T05:53:39.711Z,20.30
2023-05-15T05:54:15.057Z,20.40
2023-05-15T05:54:49.774Z,20.40
2023-05-15T05:55:23.899Z,20.40
2023-05-15T05:55:58.207Z,20.40
2023-05-15T05:56:31.813Z,20.50
2023-05-15T05:57:08.171Z,20.50
2023-05-15T05:57:42.113Z,20.50
2023-05-15T05:58:24.841Z,20.40
2023-05-15T05:59:02.111Z,20.40
2023-05-15T05:59:36.042Z,20.40
2023-05-15T06:00:11.332Z,20.40
2023-05-15T06:00:46.133Z,20.40
2023-05-15T06:01:20.191Z,20.50
2023-05-15T06:01:57.515Z,20.50
2023-05-15T06:02:32.477Z,20.60
2023-05-15T06:03:05.484Z,20.70
2023-05-15T06:03:41.882Z,20.70
2023-05-15T06:04:16.869Z,20.80
2023-05-15T06:04:53.516Z,20.80
2023-05-15T06:05:27.485Z,20.80
2023-05-15T06:06:00.914Z,20.80
2023-05-15T06:06:37.698Z,20.80
2023-05-15T06:07:12.251Z,20.70
2023-05-15T06:07:46.132Z,20.70
2023-05-15T06:08:20.916Z,20.70
2023-05-15T06:08:56.502Z,20.60
2023-05-15T06:09:31.797Z,20.70
2023-05-15T06:10:10.018Z,20.60
2023-05-15T06:10:45.494Z,20.70
2023-05-15T06:11:19.064Z,20.70
2023-05-15T06:11:54.880Z,20.70
2023-05-15T06:12:28.979Z,20.80
2023-05-15T06:13:02.400Z,20.80
2023-05-15T06:13:37.996Z,20.80
2023-05-15T06:14:11.487Z,20.80
2023-05-15T06:14:44.588Z,20.90
2023-05-15T06:15:20.907Z,21.00
2023-05-15T06:15:54.182Z,21.10
2023-05-15T06:16:28.287Z,21.20
2023-05-15T06:17:03.267Z,21.20
2023-05-15T06:17:37.804Z,21.30
2023-05-15T06:18:12.553Z,21.40
2023-05-15T06:18:45.916Z,21.40
2023-05-15T06:19:22.402Z,21.40
2023-05-15T06:19:57.555Z,21.40
2023-05-15T06:20:31.145Z,21.40
2023-05-15T06:21:07.010Z,21.30
2023-05-15T06:21:39.595Z,21.30
2023-05-15T06:22:13.598Z,21.20
2023-05-15T06:22:49.314Z,21.10
2023-05-15T06:23:24.327Z,21.10
2023-05-15T06:23:58.251Z,20.90
2023-05-15T06:24:32.271Z,20.90
2023-05-15T06:25:07.948Z,20.80
2023-05-15T06:25:43.193Z,20.80
2023-05-15T06:26:18.639Z,20.80
2023-05-15T06:26:52.610Z,20.80
2023-05-15T06:27:28.278Z,20.80
2023-05-15T06:28:01.649Z,20.90
2023-05-15T06:28:35.795Z,20.90
2023-05-15T06:29:11.119Z,20.80
2023-05-15T06:29:46.153Z,20.90
2023-05-15T06:30:19.670Z,20.90
2023-05-15T06:30:55.148Z,20.80
2023-05-15T06:31:29.379Z,20.90
2023-05-15T06:32:03.636Z,20.80
2023-05-15T06:32:44.859Z,20.90
2023-05-15T06:33:18.420Z,20.90
2023-05-15T06:33:53.717Z,20.90
2023-05-15T06:34:28.034Z,20.90
2023-05-15T06:35:01.788Z,20.90
2023-05-15T06:35:36.471Z,20.80
2023-05-15T06:36:12.163Z,20.90
2023-05-15T06:36:45.076Z,20.80
2023-05-15T06:37:18.899Z,20.90
2023-05-15T06:37:54.325Z,20.90
2023-05-15T06:38:27.944Z,20.90
2023-05-15T06:39:03.535Z,21.00
2023-05-15T06:39:37.823Z,21.00
2023-05-15T06:40:13.574Z,21.00
2023-05-15T06:40:48.020Z,21.10
2023-05-15T06:41:22.959Z,21.00
2023-05-15T06:42:01.917Z,21.00
2023-05-15T06:42:38.232Z,21.00
2023-05-15T06:43:11.552Z,21.00
2023-05-15T06:43:46.686Z,21.00
2023-05-15T06:44:20.756Z,21.00
2023-05-15T06:44:53.938Z,20.90
2023-05-15T06:45:29.211Z,20.90
2023-05-15T06:46:02.628Z,20.90
2023-05-15T06:46:37.988Z,20.90
2023-05-15T06:47:13.900Z,20.80
2023-05-15T06:47:49.138Z,20.70
2023-05-15T06:48:24.106Z,20.70
2023-05-15T06:48:57.712Z,20.70
2023-05-15T06:49:32.763Z,20.70
2023-05-15T06:50:10.246Z,20.80
2023-05-15T06:50:43.626Z,20.80
2023-05-15T06:51:18.014Z,20.80
2023-05-15T06:51:52.442Z,20.90
2023-05-15T06:52:25.357Z,20.90
2023-05-15T06:53:01.312Z,20.90
2023-05-15T06:53:34.154Z,20.90
2023-05-15T06:54:08.557Z,20.90
2023-05-15T06:54:44.588Z,20.90
2023-05-15T06:55:18.257Z,20.80
2023-05-15T06:55:54.183Z,20.70
2023-05-15T06:56:29.295Z,20.70
2023-05-15T06:57:02.785Z,20.70
2023-05-15T06:57:36.729Z,20.70
2023-05-15T07:07:26.867Z,20.70
2023-05-15T07:08:00.522Z,20.80
2023-05-15T07:08:35.421Z,20.90
2023-05-15T07:09:09.948Z,20.90
2023-05-15T07:09:48.899Z,21.10
2023-05-15T07:10:22.307Z,21.10
2023-05-15T07:10:57.991Z,21.10
2023-05-15T07:11:34.210Z,21.20
2023-05-15T07:12:11.085Z,21.20
2023-05-15T07:12:45.561Z,21.20
2023-05-15T07:13:20.104Z,21.30
2023-05-15T07:13:55.653Z,21.40
2023-05-15T07:14:29.508Z,21.50
2023-05-15T07:15:03.521Z,21.60
2023-05-15T07:15:39.130Z,21.60
2023-05-15T07:16:13.097Z,21.70
2023-05-15T07:16:47.835Z,21.70
2023-05-15T07:17:22.460Z,21.80
2023-05-15T07:17:58.393Z,21.80
2023-05-15T07:18:34.041Z,21.80
2023-05-15T07:19:10.131Z,21.70
2023-05-15T07:19:45.357Z,21.70
2023-05-15T07:20:19.798Z,21.70
2023-05-15T07:20:53.738Z,21.70
2023-05-15T07:21:27.764Z,21.70
2023-05-15T07:22:03.430Z,21.70
2023-05-15T07:22:44.441Z,21.60
2023-05-15T07:23:23.130Z,21.60
2023-05-15T07:23:56.925Z,21.60
2023-05-15T07:24:31.890Z,21.60
2023-05-15T07:25:08.584Z,21.70
2023-05-15T07:25:45.263Z,21.80
2023-05-15T07:26:28.696Z,22.00
2023-05-15T07:27:08.320Z,22.10
2023-05-15T07:27:43.551Z,22.30
2023-05-15T07:28:17.050Z,22.50
2023-05-15T07:28:52.357Z,22.60
2023-05-15T07:29:28.032Z,22.80
2023-05-15T07:30:02.694Z,22.90
2023-05-15T07:30:36.685Z,23.00
2023-05-15T07:31:11.311Z,23.10
2023-05-15T07:31:45.041Z,23.20
2023-05-15T07:32:20.757Z,23.40
2023-05-15T07:32:55.057Z,23.40
2023-05-15T07:33:30.512Z,23.60
2023-05-15T07:34:06.289Z,23.80
2023-05-15T07:34:39.704Z,24.00
2023-05-15T07:35:14.961Z,24.10
2023-05-15T07:35:48.335Z,24.30
2023-05-15T07:36:22.752Z,24.60
2023-05-15T07:36:57.877Z,24.80
2023-05-15T07:37:31.863Z,25.00
2023-05-15T07:38:05.069Z,25.20
2023-05-15T07:38:39.836Z,25.50
2023-05-15T07:39:14.500Z,25.70
2023-05-15T07:48:35.048Z,26.50
2023-05-15T07:49:08.859Z,26.70
2023-05-15T07:49:42.880Z,26.50
2023-05-15T07:50:18.100Z,26.40
2023-05-15T07:50:53.936Z,26.30
2023-05-15T07:51:27.399Z,26.20
2023-05-15T07:52:02.869Z,26.10
2023-05-15T07:52:36.847Z,25.90
2023-05-15T07:53:11.255Z,25.80
2023-05-15T07:53:46.406Z,25.60
2023-05-15T07:54:19.826Z,25.40
2023-05-15T07:54:54.077Z,25.20
2023-05-15T07:55:29.328Z,25.10
2023-05-15T07:56:05.188Z,25.10
2023-05-15T07:56:39.877Z,25.20
2023-05-15T07:57:16.268Z,25.20
2023-05-15T07:57:53.562Z,25.30
2023-05-15T07:58:30.614Z,25.40
2023-05-15T07:59:05.369Z,25.60
2023-05-15T07:59:40.402Z,25.70
2023-05-15T08:00:17.648Z,25.80
2023-05-15T08:00:51.848Z,25.90
2023-05-15T08:01:26.001Z,26.10
2023-05-15T08:02:01.428Z,26.20
2023-05-15T08:02:36.159Z,26.30
2023-05-15T08:03:11.435Z,26.40
2023-05-15T08:03:46.929Z,26.50
2023-05-15T08:04:24.815Z,26.50
2023-05-15T08:04:58.218Z,26.40
2023-05-15T08:05:31.062Z,26.40
2023-05-15T08:06:08.274Z,26.40
2023-05-15T08:06:44.488Z,26.30
2023-05-15T08:07:17.933Z,26.10
2023-05-15T08:07:52.351Z,25.90
2023-05-15T08:08:27.708Z,25.70
2023-05-15T08:09:04.269Z,25.50
2023-05-15T08:09:38.737Z,25.40
2023-05-15T08:10:13.088Z,25.20
2023-05-15T08:12:32.160Z,25.10
2023-05-15T08:13:07.104Z,24.70
2023-05-15T08:13:41.106Z,24.60
2023-05-15T08:14:15.037Z,24.50
2023-05-15T08:14:50.360Z,24.40
2023-05-15T08:15:25.833Z,24.30
2023-05-15T08:15:59.721Z,24.20
2023-05-15T08:16:34.010Z,24.10
2023-05-15T08:17:09.518Z,24.00
2023-05-15T13:21:10.675Z,21.80
2023-05-15T13:21:46.327Z,21.80
2023-05-15T13:22:19.582Z,21.80
2023-05-15T13:22:54.149Z,21.80
2023-05-15T13:23:30.470Z,21.70
2023-05-15T13:24:04.777Z,21.70
2023-05-15T13:24:39.917Z,21.70
2023-05-15T13:25:17.923Z,21.70
2023-05-15T13:25:52.623Z,21.60
2023-05-15T13:26:26.812Z,21.70
2023-05-15T13:27:01.478Z,21.60
2023-05-15T13:27:35.420Z,21.60
2023-05-15T13:28:11.266Z,21.60
2023-05-15T13:28:45.051Z,21.70
2023-05-15T13:29:20.057Z,21.60
2023-05-15T13:29:55.013Z,21.60
2023-05-15T13:30:28.884Z,21.70
2023-05-15T13:31:05.021Z,21.60
2023-05-15T13:31:38.735Z,21.60
2023-05-15T13:32:13.740Z,21.70
2023-05-15T13:32:47.784Z,21.70
2023-05-15T13:33:22.500Z,21.70
2023-05-15T13:33:56.170Z,21.70
2023-05-15T13:34:32.102Z,21.70
2023-05-15T13:35:06.455Z,21.70
2023-05-15T13:35:43.096Z,21.70
2023-05-15T13:36:17.977Z,21.70
2023-05-15T13:36:53.429Z,21.70
2023-05-15T13:37:26.368Z,21.70
2023-05-15T13:38:00.892Z,21.70
2023-05-15T13:38:35.797Z,21.70
2023-05-15T13:39:10.366Z,21.70
2023-05-15T13:39:46.102Z,21.70
2023-05-15T13:40:19.800Z,21.70
2023-05-15T13:40:55.866Z,21.70
2023-05-15T13:41:31.334Z,21.70
2023-05-15T13:42:07.424Z,21.70
2023-05-15T13:42:43.030Z,21.70
2023-05-15T13:43:17.296Z,21.70
2023-05-15T13:43:53.703Z,21.70
2023-05-15T13:44:28.858Z,21.70
2023-05-15T13:45:04.384Z,21.70
2023-05-15T13:45:38.341Z,21.70
2023-05-15T13:46:12.724Z,21.70
2023-05-15T13:46:48.262Z,21.70
2023-05-15T13:47:23.161Z,21.70
2023-05-15T13:47:59.093Z,21.70
2023-05-15T13:48:34.296Z,21.70
2023-05-15T13:49:08.910Z,21.60
2023-05-15T13:49:43.013Z,21.60
2023-05-15T13:50:18.567Z,21.60
2023-05-15T13:50:51.384Z,21.60
2023-05-15T13:51:27.562Z,21.60
2023-05-15T13:52:00.830Z,21.60
2023-05-15T13:52:35.763Z,21.60
2023-05-15T13:53:10.739Z,21.60
2023-05-15T13:53:48.110Z,21.60
2023-05-15T13:54:24.329Z,21.60
2023-05-15T13:54:59.162Z,21.60
2023-05-15T13:55:32.729Z,21.60
2023-05-15T13:56:09.661Z,21.60
2023-05-15T13:56:45.113Z,21.60
2023-05-15T13:57:18.931Z,21.60
2023-05-15T13:57:53.343Z,21.70
2023-05-15T13:58:27.393Z,21.70
2023-05-15T13:59:02.599Z,21.70
2023-05-15T13:59:37.090Z,21.70
2023-05-15T14:00:15.264Z,21.70
2023-05-15T14:00:50.601Z,21.70
2023-05-15T14:01:25.507Z,21.70
2023-05-15T14:02:00.726Z,21.70
2023-05-15T14:02:35.608Z,21.60
2023-05-15T14:03:10.346Z,21.60
2023-05-15T14:03:46.584Z,21.60
2023-05-15T14:04:21.140Z,21.60
2023-05-15T14:04:56.593Z,21.60
2023-05-15T14:05:30.548Z,21.60
2023-05-15T14:06:04.973Z,21.60
2023-05-15T14:06:39.447Z,21.60
2023-05-15T14:07:14.262Z,21.60
2023-05-15T14:07:48.338Z,21.60
2023-05-15T14:08:22.527Z,21.60
2023-05-15T14:08:58.229Z,21.60
2023-05-15T14:09:33.998Z,21.60
2023-05-15T14:10:10.088Z,21.50
2023-05-15T14:10:45.759Z,21.50
2023-05-15T14:11:23.458Z,21.50
2023-05-15T14:11:57.963Z,21.50
2023-05-15T14:12:31.518Z,21.50
2023-05-15T14:13:06.082Z,21.60
2023-05-15T14:13:42.138Z,21.50
2023-05-15T14:14:16.506Z,21.50
2023-05-15T14:14:50.984Z,21.50
2023-05-15T14:15:26.141Z,21.50
2023-05-15T14:16:00.139Z,21.50
2023-05-15T14:16:33.958Z,21.50
2023-05-15T14:17:07.469Z,21.50
2023-05-15T14:17:43.531Z,21.50
2023-05-15T14:18:16.876Z,21.50
2023-05-15T14:18:53.313Z,21.50
2023-05-15T14:19:26.815Z,21.50
2023-05-15T14:20:00.766Z,21.50
2023-05-15T14:20:36.051Z,21.50
2023-05-15T14:21:09.389Z,21.40
2023-05-15T14:21:43.877Z,21.40
2023-05-15T14:22:17.779Z,21.40
2023-05-15T14:22:53.192Z,21.50
2023-05-15T14:23:26.676Z,21.40
2023-05-15T14:24:05.522Z,21.40
2023-05-15T14:24:39.878Z,21.40
2023-05-15T14:25:13.763Z,21.40
2023-05-15T14:25:48.426Z,21.40
2023-05-15T14:26:24.298Z,21.40
2023-05-15T14:26:58.284Z,21.40
2023-05-15T14:27:33.924Z,21.40
2023-05-15T14:28:08.169Z,21.40
2023-05-15T14:28:43.406Z,21.50
2023-05-15T14:29:16.747Z,21.50
2023-05-15T14:29:50.723Z,21.50
2023-05-15T14:30:25.338Z,21.40
2023-05-15T14:30:59.263Z,21.50
2023-05-15T14:31:34.880Z,21.40
2023-05-15T14:32:09.729Z,21.50
2023-05-15T14:32:43.490Z,21.50
2023-05-15T14:33:18.249Z,21.50
2023-05-15T14:33:53.020Z,21.50
2023-05-15T14:34:29.239Z,21.50
2023-05-15T14:35:03.044Z,21.50
2023-05-15T14:35:38.890Z,21.50
2023-05-15T14:36:14.357Z,21.50
2023-05-15T14:36:49.245Z,21.50
2023-05-15T14:37:23.217Z,21.50
2023-05-15T14:37:57.147Z,21.50
2023-05-15T14:38:31.207Z,21.50
2023-05-15T14:39:06.595Z,21.50
2023-05-15T14:39:40.741Z,21.50
2023-05-15T14:40:16.026Z,21.50
2023-05-15T14:40:50.493Z,21.50
2023-05-15T14:41:24.688Z,21.50
2023-05-15T14:41:59.950Z,21.50
2023-05-15T14:42:33.869Z,21.50
2023-05-15T14:43:10.135Z,21.50
2023-05-15T14:43:43.796Z,21.50
2023-05-15T14:44:18.619Z,21.50
2023-05-15T14:44:53.849Z,21.50
2023-05-15T14:45:28.812Z,21.50
2023-05-15T14:46:04.690Z,21.50
2023-05-15T14:46:39.152Z,21.50
2023-05-15T14:47:13.851Z,21.50
2023-05-15T14:47:48.761Z,21.50
2023-05-15T14:48:23.057Z,21.50
2023-05-15T14:48:58.053Z,21.50
2023-05-15T14:49:32.220Z,21.50
2023-05-15T14:50:09.016Z,21.50
2023-05-15T14:50:43.830Z,21.40
2023-05-15T14:51:19.986Z,21.40
2023-05-15T14:51:53.578Z,21.40
2023-05-15T14:52:28.616Z,21.40
2023-05-15T14:53:04.239Z,21.40
2023-05-15T14:53:38.129Z,21.40
2023-05-15T14:54:14.327Z,21.40
2023-05-15T14:55:00.724Z,21.40
2023-05-15T14:55:42.723Z,21.30
2023-05-15T14:56:15.235Z,21.30
2023-05-15T14:56:48.992Z,21.30
2023-05-15T14:57:24.375Z,21.30
2023-05-15T14:58:00.082Z,21.30
2023-05-15T14:58:34.678Z,21.30
2023-05-15T14:59:07.479Z,21.30
2023-05-15T14:59:40.771Z,21.20
2023-05-15T15:00:17.941Z,21.30
2023-05-15T15:00:53.132Z,21.30
2023-05-15T15:01:29.751Z,21.20
2023-05-15T15:02:03.656Z,21.30
2023-05-15T15:02:39.290Z,21.30
2023-05-15T15:03:14.943Z,21.30
2023-05-15T15:03:52.043Z,21.30
2023-05-15T15:04:27.380Z,21.30
2023-05-15T15:05:02.203Z,21.30
2023-05-15T15:05:37.044Z,21.30
2023-05-15T15:06:11.570Z,21.30
2023-05-15T15:06:45.061Z,21.30
2023-05-15T15:07:20.086Z,21.30
2023-05-15T15:08:02.955Z,21.30
2023-05-15T15:08:37.900Z,21.30
2023-05-15T15:09:10.695Z,21.30
2023-05-15T15:09:46.601Z,21.30
2023-05-15T15:10:20.299Z,21.30
2023-05-15T15:10:56.023Z,21.30
2023-05-15T15:11:29.720Z,21.30
2023-05-15T15:12:04.651Z,21.30
2023-05-15T15:12:40.157Z,21.30
2023-05-15T15:13:15.027Z,21.30
2023-05-15T15:13:48.583Z,21.30
2023-05-15T15:14:25.699Z,21.30
2023-05-15T15:14:59.503Z,21.30
2023-05-15T15:15:34.726Z,21.20
2023-05-15T15:16:10.635Z,21.20
2023-05-15T15:16:46.444Z,21.20
2023-05-15T15:17:21.538Z,21.20
2023-05-15T15:17:57.564Z,21.20
2023-05-15T15:18:32.851Z,21.20
2023-05-15T15:19:07.389Z,21.10
2023-05-15T15:19:41.332Z,21.10
2023-05-15T15:20:17.373Z,21.10
2023-05-15T15:20:52.994Z,21.10
2023-05-15T15:21:28.181Z,21.10
2023-05-15T15:22:02.888Z,21.10
2023-05-15T15:22:36.864Z,21.10
2023-05-15T15:23:10.624Z,21.10
2023-05-15T15:23:46.808Z,21.10
2023-05-15T15:24:20.761Z,21.10
2023-05-15T15:24:57.566Z,21.10
2023-05-15T15:25:34.221Z,21.10
2023-05-15T15:26:09.149Z,21.20
2023-05-15T15:26:43.886Z,21.20
2023-05-15T15:27:19.446Z,21.20
2023-05-15T15:27:54.712Z,21.20
2023-05-15T15:28:29.961Z,21.10
2023-05-15T15:29:03.976Z,21.20
2023-05-15T15:29:38.694Z,21.20
2023-05-15T15:30:14.471Z,21.20
2023-05-15T15:30:48.288Z,21.20
2023-05-15T15:31:23.644Z,21.20
2023-05-15T15:31:58.959Z,21.20
2023-05-15T15:32:32.913Z,21.20
2023-05-15T15:33:07.513Z,21.20
2023-05-15T15:33:42.160Z,21.20
2023-05-15T15:34:17.231Z,21.20
2023-05-15T15:34:51.187Z,21.20
2023-05-15T15:35:25.755Z,21.20
2023-05-15T15:36:00.668Z,21.20
2023-05-15T15:36:33.417Z,21.20
2023-05-15T15:37:08.964Z,21.20
2023-05-15T15:37:42.440Z,21.20
2023-05-15T15:38:16.116Z,21.20
2023-05-15T15:38:53.356Z,21.20
2023-05-15T15:39:27.152Z,21.20
2023-05-15T15:40:03.021Z,21.20
2023-05-15T15:40:38.093Z,21.20
2023-05-15T15:41:12.236Z,21.20
2023-05-15T15:41:46.525Z,21.20
2023-05-15T15:42:21.780Z,21.20
2023-05-15T15:42:55.567Z,21.20
2023-05-15T15:43:31.265Z,21.20
2023-05-15T15:44:06.202Z,21.10
2023-05-15T15:44:41.315Z,21.10
2023-05-15T15:45:15.061Z,21.10
2023-05-15T15:45:49.953Z,21.10
2023-05-15T15:46:24.403Z,21.10
2023-05-15T15:46:59.999Z,21.10
2023-05-15T15:47:33.920Z,21.10
2023-05-15T15:48:10.236Z,21.10
2023-05-15T15:48:44.311Z,21.10
2023-05-15T15:49:17.567Z,21.10
2023-05-15T15:49:53.499Z,21.10
2023-05-15T15:50:28.053Z,21.10
2023-05-15T15:51:02.475Z,21.10
2023-05-15T15:51:37.338Z,21.10
2023-05-15T15:52:10.820Z,21.10
2023-05-15T15:52:45.427Z,21.10
2023-05-15T15:53:18.985Z,21.10
2023-05-15T15:53:53.980Z,21.10
2023-05-15T15:54:29.179Z,21.10
2023-05-15T15:55:06.309Z,21.10
2023-05-15T15:55:39.853Z,21.10
2023-05-15T15:56:13.726Z,21.10
2023-05-15T15:56:48.530Z,21.10
2023-05-15T15:57:22.353Z,21.10
2023-05-15T15:57:56.053Z,21.10
2023-05-15T15:58:30.920Z,21.10
2023-05-15T15:59:04.133Z,21.20
2023-05-15T15:59:37.403Z,21.20
2023-05-15T16:00:13.626Z,21.20
2023-05-15T16:00:47.816Z,21.20
2023-05-15T16:01:24.079Z,21.20
2023-05-15T16:01:58.883Z,21.20
2023-05-15T16:02:34.365Z,21.20
2023-05-15T16:03:09.539Z,21.20
2023-05-15T16:03:44.930Z,21.10
2023-05-15T16:04:17.969Z,21.20
2023-05-15T16:04:52.688Z,21.10
2023-05-15T16:05:27.646Z,21.20
2023-05-15T16:06:01.597Z,21.10
2023-05-15T16:06:36.294Z,21.10
2023-05-15T16:07:09.737Z,21.10
2023-05-15T16:07:44.084Z,21.10
2023-05-15T16:08:19.308Z,21.10
2023-05-15T16:08:53.978Z,21.10
2023-05-15T16:09:29.188Z,21.10
2023-05-15T16:10:12.572Z,21.10
2023-05-15T16:10:48.980Z,21.10
2023-05-15T16:11:22.726Z,21.10
2023-05-15T16:11:57.072Z,21.10
2023-05-15T16:12:31.136Z,21.10
2023-05-15T16:13:06.092Z,21.10
2023-05-15T16:13:41.330Z,21.10
2023-05-15T16:14:15.056Z,21.10
2023-05-15T16:14:49.791Z,21.10
2023-05-15T16:15:25.948Z,21.10
2023-05-15T16:15:59.968Z,21.10
2023-05-15T16:16:36.020Z,21.10
2023-05-15T16:17:10.919Z,21.10
2023-05-15T16:17:45.622Z,21.10
2023-05-15T16:18:20.116Z,21.10
2023-05-15T16:18:55.892Z,21.00
2023-05-15T16:19:31.325Z,21.00
2023-05-15T16:20:05.842Z,21.00
2023-05-15T16:20:40.510Z,21.00
2023-05-15T16:21:14.280Z,21.00
2023-05-15T16:21:47.958Z,21.00
2023-05-15T16:22:22.930Z,21.00
2023-05-15T16:22:56.150Z,21.00
2023-05-15T16:23:30.197Z,21.00
2023-05-15T16:24:03.745Z,21.00
2023-05-15T16:24:38.825Z,21.00
2023-05-15T16:25:13.554Z,21.00
2023-05-15T16:25:48.807Z,21.00
2023-05-15T16:26:23.476Z,21.00
2023-05-15T16:26:59.248Z,21.00
2023-05-15T16:27:33.494Z,21.00
2023-05-15T16:28:09.279Z,21.00
2023-05-15T16:28:44.950Z,21.00
2023-05-15T16:29:19.397Z,21.00
2023-05-15T16:29:53.603Z,21.00
2023-05-15T16:30:36.779Z,21.00
2023-05-15T16:32:27.731Z,21.00
2023-05-15T16:33:03.439Z,20.90
2023-05-15T16:33:37.381Z,20.90
2023-05-15T16:34:11.370Z,20.90
2023-05-15T16:34:46.225Z,20.90
2023-05-15T16:35:22.341Z,20.90
2023-05-15T16:35:58.156Z,20.90
2023-05-15T16:36:31.849Z,20.90
2023-05-15T16:37:06.472Z,20.90
2023-05-15T16:37:41.329Z,20.90
2023-05-15T16:38:16.354Z,20.80
2023-05-15T16:38:52.648Z,20.80
2023-05-15T16:39:26.965Z,20.80
2023-05-15T16:40:01.595Z,20.80
2023-05-15T16:40:41.657Z,20.90
2023-05-15T16:41:16.200Z,20.80
2023-05-15T16:41:50.120Z,20.80
2023-05-15T16:42:25.206Z,20.80
2023-05-15T16:43:00.030Z,20.80
2023-05-15T16:43:33.745Z,20.80
2023-05-15T16:44:11.057Z,20.80
2023-05-15T16:44:44.810Z,20.80
2023-05-15T16:45:20.366Z,20.80
2023-05-15T16:45:55.459Z,20.80
2023-05-15T16:46:28.465Z,20.80
2023-05-15T16:47:03.846Z,20.80
2023-05-15T16:47:38.462Z,20.80
2023-05-15T16:48:13.091Z,20.70
2023-05-15T16:48:47.683Z,20.70
2023-05-15T16:49:24.326Z,20.70
2023-05-15T16:49:57.888Z,20.70
2023-05-15T16:50:32.481Z,20.70
2023-05-15T16:51:07.659Z,20.70
2023-05-15T16:51:41.952Z,20.70
2023-05-15T16:52:17.776Z,20.60
2023-05-15T16:52:50.998Z,20.60
2023-05-15T16:53:27.229Z,20.70
2023-05-15T16:54:01.470Z,20.60
2023-05-15T16:54:38.121Z,20.60
2023-05-15T16:55:13.763Z,20.60
2023-05-15T16:55:49.753Z,20.60
2023-05-15T16:56:25.166Z,20.50
2023-05-15T16:57:00.088Z,20.50
2023-05-15T16:57:36.530Z,20.50
2023-05-15T16:58:12.251Z,20.50
2023-05-15T16:58:46.409Z,20.50
2023-05-15T16:59:21.992Z,20.50
2023-05-15T16:59:58.297Z,20.40
2023-05-15T17:00:32.190Z,20.50
2023-05-15T17:50:27.190Z,19.40
2023-05-15T17:51:02.332Z,19.20
2023-05-15T17:51:36.682Z,19.20
2023-05-15T17:52:10.569Z,19.10
2023-05-15T17:52:45.341Z,19.10
2023-05-15T17:53:18.515Z,19.10
2023-05-15T17:53:53.529Z,19.10
2023-05-15T17:54:28.160Z,19.10
2023-05-15T17:55:02.198Z,19.00
2023-05-15T17:55:38.330Z,19.00
2023-05-15T17:56:13.320Z,19.00
2023-05-15T17:58:29.955Z,19.00
2023-05-15T17:59:05.015Z,19.00
2023-05-15T17:59:38.314Z,19.00
2023-05-15T18:00:12.887Z,18.90
2023-05-15T18:00:46.774Z,18.90
2023-05-15T18:01:20.181Z,18.90
2023-05-15T18:01:55.056Z,18.90
2023-05-15T18:02:30.200Z,18.90
2023-05-15T18:03:05.388Z,18.90
2023-05-15T18:03:41.815Z,18.90
2023-05-15T18:04:15.900Z,18.80
2023-05-15T18:04:52.097Z,18.80
2023-05-15T18:05:28.421Z,18.80
2023-05-15T18:06:03.387Z,18.80
2023-05-15T18:06:36.834Z,18.80
2023-05-15T18:07:11.338Z,18.80
2023-05-15T18:07:48.628Z,18.80
2023-05-15T18:08:24.002Z,18.80
2023-05-15T18:08:58.041Z,18.80
2023-05-15T18:09:33.559Z,18.70
2023-05-15T18:10:12.113Z,18.70
2023-05-15T18:10:46.621Z,18.70
2023-05-15T18:11:25.816Z,18.70
2023-05-15T18:11:59.073Z,18.70
2023-05-15T18:12:33.899Z,18.70
2023-05-15T18:13:08.209Z,18.70
2023-05-15T18:13:41.659Z,18.70
2023-05-15T18:14:17.076Z,18.60
2023-05-15T18:14:50.969Z,18.60
2023-05-15T18:15:26.276Z,18.60
2023-05-15T18:16:01.361Z,18.60
2023-05-15T18:16:34.482Z,18.60
2023-05-15T18:17:11.232Z,18.60
2023-05-15T18:17:45.556Z,18.60
2023-05-15T18:18:21.728Z,18.50
2023-05-15T18:18:56.111Z,18.50
2023-05-15T18:19:29.396Z,18.50
2023-05-15T18:20:05.714Z,18.50
2023-05-15T18:20:40.708Z,18.50
2023-05-15T18:21:15.939Z,18.50
2023-05-15T18:21:51.016Z,18.40
2023-05-15T18:22:25.973Z,18.40
2023-05-15T18:23:02.200Z,18.40
2023-05-15T18:23:36.248Z,18.40
2023-05-15T18:24:10.558Z,18.40
2023-05-15T18:24:45.459Z,18.40
2023-05-15T18:25:18.984Z,18.40
2023-05-15T18:25:53.909Z,18.30
2023-05-15T18:26:30.036Z,18.30
2023-05-15T18:27:05.026Z,18.30
2023-05-15T18:27:40.360Z,18.30
2023-05-15T18:28:15.743Z,18.30
2023-05-15T18:28:50.641Z,18.30
2023-05-15T18:29:26.676Z,18.30
2023-05-15T18:29:59.995Z,18.30
2023-05-15T18:30:35.256Z,18.20
2023-05-15T18:31:13.249Z,18.20
2023-05-15T18:31:47.233Z,18.20
2023-05-15T18:32:21.475Z,18.20
2023-05-15T18:32:55.984Z,18.20
2023-05-15T18:33:30.527Z,18.20
2023-05-15T18:34:05.833Z,18.10
2023-05-15T18:34:41.236Z,18.10
2023-05-15T18:35:15.777Z,18.10
2023-05-15T18:35:50.226Z,18.10
2023-05-15T18:36:23.285Z,18.10
2023-05-15T18:36:58.740Z,18.10
2023-05-15T18:37:31.935Z,18.10
2023-05-15T18:38:07.623Z,18.10
2023-05-15T18:38:45.308Z,18.10
2023-05-15T20:28:36.718Z,16.80
2023-05-15T20:29:11.897Z,16.80
2023-05-15T20:29:45.397Z,16.80
2023-05-15T20:30:19.367Z,16.80
2023-05-15T20:30:53.248Z,16.80
2023-05-15T20:31:28.335Z,16.80
2023-05-15T20:32:02.261Z,16.80
2023-05-15T20:32:37.065Z,16.70
2023-05-15T20:33:12.358Z,16.70
2023-05-15T20:33:48.286Z,16.70
2023-05-15T20:34:24.034Z,16.70
2023-05-15T20:34:58.636Z,16.70
2023-05-15T20:35:32.867Z,16.70